sensor_id;sensor_type;location;lat;lon;timestamp;temperature;humidity
46091;DHT22;31826;53.572;10.170;2022-10-22T00:02:05;14.00;99.90
46091;DHT22;31826;53.572;10.170;2022-10-22T00:04:33;14.00;99.90
46091;DHT22;31826;53.572;10.170;2022-10-22T00:06:58;14.00;99.90
46091;DHT22;31826;53.572;10.170;2022-10-22T00:09:24;13.90;99.90
46091;DHT22;31826;53.572;10.170;2022-10-22T00:11:50;14.00;99.90
46091;DHT22;31826;53.572;10.170;2022-10-22T00:14:16;14.00;99.90
46091;DHT22;31826;53.572;10.170;2022-10-22T00:16:42;14.00;99.90
46091;DHT22;31826;53.572;10.170;2022-10-22T00:19:08;14.00;99.90
46091;DHT22;31826;53.572;10.170;2022-10-22T00:21:34;14.00;99.90
46091;DHT22;31826;53.572;10.170;2022-10-22T00:24:00;14.00;99.90
46091;DHT22;31826;53.572;10.170;2022-10-22T00:26:26;14.00;99.90
46091;DHT22;31826;53.572;10.170;2022-10-22T00:28:52;14.00;99.90
46091;DHT22;31826;53.572;10.170;2022-10-22T00:31:18;14.00;99.90
46091;DHT22;31826;53.572;10.170;2022-10-22T00:33:46;14.00;99.90
46091;DHT22;31826;53.572;10.170;2022-10-22T00:36:12;14.00;99.90
46091;DHT22;31826;53.572;10.170;2022-10-22T00:38:38;14.00;99.90
46091;DHT22;31826;53.572;10.170;2022-10-22T00:41:04;14.00;99.90
46091;DHT22;31826;53.572;10.170;2022-10-22T00:43:30;14.00;99.90
46091;DHT22;31826;53.572;10.170;2022-10-22T00:45:56;14.00;99.90
46091;DHT22;31826;53.572;10.170;2022-10-22T00:48:24;14.00;99.90
46091;DHT22;31826;53.572;10.170;2022-10-22T00:50:52;14.00;99.90
46091;DHT22;31826;53.572;10.170;2022-10-22T00:53:40;14.00;99.90
46091;DHT22;31826;53.572;10.170;2022-10-22T00:56:10;14.00;99.90
46091;DHT22;31826;53.572;10.170;2022-10-22T00:58:39;14.00;99.90
46091;DHT22;31826;53.572;10.170;2022-10-22T01:01:08;14.00;99.90
46091;DHT22;31826;53.572;10.170;2022-10-22T01:03:36;14.00;99.90
46091;DHT22;31826;53.572;10.170;2022-10-22T01:06:03;14.00;99.90
46091;DHT22;31826;53.572;10.170;2022-10-22T01:14:22;14.00;99.90
46091;DHT22;31826;53.572;10.170;2022-10-22T01:17:00;13.90;99.90
46091;DHT22;31826;53.572;10.170;2022-10-22T01:22:39;14.00;99.90
46091;DHT22;31826;53.572;10.170;2022-10-22T01:28:43;14.00;99.90
46091;DHT22;31826;53.572;10.170;2022-10-22T01:31:15;14.00;99.90
46091;DHT22;31826;53.572;10.170;2022-10-22T01:33:43;13.90;99.90
46091;DHT22;31826;53.572;10.170;2022-10-22T01:36:11;14.00;99.90
46091;DHT22;31826;53.572;10.170;2022-10-22T01:38:38;14.00;99.90
46091;DHT22;31826;53.572;10.170;2022-10-22T01:41:04;14.00;99.90
46091;DHT22;31826;53.572;10.170;2022-10-22T01:43:31;14.00;99.90
46091;DHT22;31826;53.572;10.170;2022-10-22T01:45:59;14.00;99.90
46091;DHT22;31826;53.572;10.170;2022-10-22T02:02:28;13.90;99.90
46091;DHT22;31826;53.572;10.170;2022-10-22T02:05:04;13.80;99.90
46091;DHT22;31826;53.572;10.170;2022-10-22T02:07:36;13.70;99.90
46091;DHT22;31826;53.572;10.170;2022-10-22T02:10:05;13.60;99.90
46091;DHT22;31826;53.572;10.170;2022-10-22T02:12:32;13.50;99.90
46091;DHT22;31826;53.572;10.170;2022-10-22T02:15:00;13.50;99.90
46091;DHT22;31826;53.572;10.170;2022-10-22T02:17:28;13.40;99.90
46091;DHT22;31826;53.572;10.170;2022-10-22T02:19:59;13.40;99.90
46091;DHT22;31826;53.572;10.170;2022-10-22T02:22:26;13.40;99.90
46091;DHT22;31826;53.572;10.170;2022-10-22T02:24:52;13.30;99.90
46091;DHT22;31826;53.572;10.170;2022-10-22T02:30:10;13.20;99.90
46091;DHT22;31826;53.572;10.170;2022-10-22T02:32:38;13.20;99.90
46091;DHT22;31826;53.572;10.170;2022-10-22T02:35:08;13.20;99.90
46091;DHT22;31826;53.572;10.170;2022-10-22T02:37:36;13.20;99.90
46091;DHT22;31826;53.572;10.170;2022-10-22T02:40:02;13.10;99.90
46091;DHT22;31826;53.572;10.170;2022-10-22T02:42:29;13.00;99.90
46091;DHT22;31826;53.572;10.170;2022-10-22T02:44:55;12.90;99.90
46091;DHT22;31826;53.572;10.170;2022-10-22T02:47:20;12.80;99.90
46091;DHT22;31826;53.572;10.170;2022-10-22T02:49:46;12.80;99.90
46091;DHT22;31826;53.572;10.170;2022-10-22T02:52:12;12.80;99.90
46091;DHT22;31826;53.572;10.170;2022-10-22T02:54:38;12.80;99.90
46091;DHT22;31826;53.572;10.170;2022-10-22T02:57:03;12.80;99.90
46091;DHT22;31826;53.572;10.170;2022-10-22T02:59:29;12.90;99.90
46091;DHT22;31826;53.572;10.170;2022-10-22T03:01:55;12.90;99.90
46091;DHT22;31826;53.572;10.170;2022-10-22T03:04:20;12.90;99.90
46091;DHT22;31826;53.572;10.170;2022-10-22T03:06:46;12.80;99.90
46091;DHT22;31826;53.572;10.170;2022-10-22T03:09:14;12.80;99.90
46091;DHT22;31826;53.572;10.170;2022-10-22T03:11:40;12.70;99.90
46091;DHT22;31826;53.572;10.170;2022-10-22T03:14:06;12.80;99.90
46091;DHT22;31826;53.572;10.170;2022-10-22T03:16:32;12.70;99.90
46091;DHT22;31826;53.572;10.170;2022-10-22T03:18:57;12.70;99.90
46091;DHT22;31826;53.572;10.170;2022-10-22T03:21:48;12.70;99.90
46091;DHT22;31826;53.572;10.170;2022-10-22T03:24:23;12.70;99.90
46091;DHT22;31826;53.572;10.170;2022-10-22T03:26:51;12.60;99.90
46091;DHT22;31826;53.572;10.170;2022-10-22T03:29:18;12.70;99.90
46091;DHT22;31826;53.572;10.170;2022-10-22T03:31:45;12.70;99.90
46091;DHT22;31826;53.572;10.170;2022-10-22T03:34:10;12.70;99.90
46091;DHT22;31826;53.572;10.170;2022-10-22T03:36:38;12.60;99.90
46091;DHT22;31826;53.572;10.170;2022-10-22T03:39:05;12.60;99.90
46091;DHT22;31826;53.572;10.170;2022-10-22T03:41:31;12.40;99.90
46091;DHT22;31826;53.572;10.170;2022-10-22T03:43:59;12.40;99.90
46091;DHT22;31826;53.572;10.170;2022-10-22T03:46:26;12.40;99.90
46091;DHT22;31826;53.572;10.170;2022-10-22T03:48:52;12.40;99.90
46091;DHT22;31826;53.572;10.170;2022-10-22T03:51:17;12.30;99.90
46091;DHT22;31826;53.572;10.170;2022-10-22T03:53:43;12.30;99.90
46091;DHT22;31826;53.572;10.170;2022-10-22T03:56:09;12.50;99.90
46091;DHT22;31826;53.572;10.170;2022-10-22T03:58:36;12.60;99.90
46091;DHT22;31826;53.572;10.170;2022-10-22T04:01:04;12.70;99.90
46091;DHT22;31826;53.572;10.170;2022-10-22T04:03:30;12.70;99.90
46091;DHT22;31826;53.572;10.170;2022-10-22T04:06:01;12.70;99.90
46091;DHT22;31826;53.572;10.170;2022-10-22T04:08:27;12.80;99.90
46091;DHT22;31826;53.572;10.170;2022-10-22T04:10:52;12.80;99.90
46091;DHT22;31826;53.572;10.170;2022-10-22T04:13:18;12.80;99.90
46091;DHT22;31826;53.572;10.170;2022-10-22T04:15:44;12.90;99.90
46091;DHT22;31826;53.572;10.170;2022-10-22T04:18:09;12.90;99.90
46091;DHT22;31826;53.572;10.170;2022-10-22T04:20:35;12.90;99.90
46091;DHT22;31826;53.572;10.170;2022-10-22T04:23:01;13.00;99.90
46091;DHT22;31826;53.572;10.170;2022-10-22T04:25:27;13.00;99.90
46091;DHT22;31826;53.572;10.170;2022-10-22T04:27:52;13.00;99.90
46091;DHT22;31826;53.572;10.170;2022-10-22T04:30:18;13.10;99.90
46091;DHT22;31826;53.572;10.170;2022-10-22T04:32:44;13.00;99.90
46091;DHT22;31826;53.572;10.170;2022-10-22T04:35:09;13.00;99.90
46091;DHT22;31826;53.572;10.170;2022-10-22T04:37:35;13.10;99.90
46091;DHT22;31826;53.572;10.170;2022-10-22T04:40:01;13.00;99.90
46091;DHT22;31826;53.572;10.170;2022-10-22T04:42:26;12.90;99.90
46091;DHT22;31826;53.572;10.170;2022-10-22T04:44:52;13.00;99.90
46091;DHT22;31826;53.572;10.170;2022-10-22T04:47:18;12.90;99.90
46091;DHT22;31826;53.572;10.170;2022-10-22T04:49:43;12.90;99.90
46091;DHT22;31826;53.572;10.170;2022-10-22T04:52:09;12.90;99.90
46091;DHT22;31826;53.572;10.170;2022-10-22T04:54:36;12.80;99.90
46091;DHT22;31826;53.572;10.170;2022-10-22T04:57:02;12.70;99.90
46091;DHT22;31826;53.572;10.170;2022-10-22T04:59:28;12.80;99.90
46091;DHT22;31826;53.572;10.170;2022-10-22T05:01:54;12.80;99.90
46091;DHT22;31826;53.572;10.170;2022-10-22T05:04:19;12.70;99.90
46091;DHT22;31826;53.572;10.170;2022-10-22T05:06:45;12.70;99.90
46091;DHT22;31826;53.572;10.170;2022-10-22T05:09:14;12.80;99.90
46091;DHT22;31826;53.572;10.170;2022-10-22T05:11:41;12.70;99.90
46091;DHT22;31826;53.572;10.170;2022-10-22T05:14:10;12.60;99.90
46091;DHT22;31826;53.572;10.170;2022-10-22T05:16:36;12.60;99.90
46091;DHT22;31826;53.572;10.170;2022-10-22T05:19:02;12.60;99.90
46091;DHT22;31826;53.572;10.170;2022-10-22T05:21:29;12.70;99.90
46091;DHT22;31826;53.572;10.170;2022-10-22T05:23:56;12.60;99.90
46091;DHT22;31826;53.572;10.170;2022-10-22T05:26:24;12.60;99.90
46091;DHT22;31826;53.572;10.170;2022-10-22T05:28:50;12.60;99.90
46091;DHT22;31826;53.572;10.170;2022-10-22T05:31:16;12.60;99.90
46091;DHT22;31826;53.572;10.170;2022-10-22T05:33:43;12.70;99.90
46091;DHT22;31826;53.572;10.170;2022-10-22T05:36:15;12.70;99.90
46091;DHT22;31826;53.572;10.170;2022-10-22T05:38:41;12.70;99.90
46091;DHT22;31826;53.572;10.170;2022-10-22T05:41:09;12.70;99.90
46091;DHT22;31826;53.572;10.170;2022-10-22T05:43:36;12.70;99.90
46091;DHT22;31826;53.572;10.170;2022-10-22T05:46:07;12.60;99.90
46091;DHT22;31826;53.572;10.170;2022-10-22T05:48:33;12.60;99.90
46091;DHT22;31826;53.572;10.170;2022-10-22T05:51:07;12.70;99.90
46091;DHT22;31826;53.572;10.170;2022-10-22T05:53:35;12.60;99.90
46091;DHT22;31826;53.572;10.170;2022-10-22T05:56:02;12.60;99.90
46091;DHT22;31826;53.572;10.170;2022-10-22T05:58:28;12.50;99.90
46091;DHT22;31826;53.572;10.170;2022-10-22T06:00:59;12.60;99.90
46091;DHT22;31826;53.572;10.170;2022-10-22T06:03:25;12.60;99.90
46091;DHT22;31826;53.572;10.170;2022-10-22T06:05:51;12.50;99.90
46091;DHT22;31826;53.572;10.170;2022-10-22T06:08:16;12.50;99.90
46091;DHT22;31826;53.572;10.170;2022-10-22T06:10:42;12.60;99.90
46091;DHT22;31826;53.572;10.170;2022-10-22T06:13:08;12.60;99.90
46091;DHT22;31826;53.572;10.170;2022-10-22T06:15:34;12.60;99.90
46091;DHT22;31826;53.572;10.170;2022-10-22T06:18:00;12.50;99.90
46091;DHT22;31826;53.572;10.170;2022-10-22T06:20:26;12.50;99.90
46091;DHT22;31826;53.572;10.170;2022-10-22T06:22:52;12.50;99.90
46091;DHT22;31826;53.572;10.170;2022-10-22T06:25:17;12.50;99.90
46091;DHT22;31826;53.572;10.170;2022-10-22T06:27:48;12.50;99.90
46091;DHT22;31826;53.572;10.170;2022-10-22T06:30:14;12.50;99.90
46091;DHT22;31826;53.572;10.170;2022-10-22T06:32:40;12.50;99.90
46091;DHT22;31826;53.572;10.170;2022-10-22T06:35:06;12.50;99.90
46091;DHT22;31826;53.572;10.170;2022-10-22T06:37:32;12.50;99.90
46091;DHT22;31826;53.572;10.170;2022-10-22T06:39:57;12.60;99.90
46091;DHT22;31826;53.572;10.170;2022-10-22T06:42:23;12.50;99.90
46091;DHT22;31826;53.572;10.170;2022-10-22T06:44:49;12.60;99.90
46091;DHT22;31826;53.572;10.170;2022-10-22T06:47:14;12.60;99.90
46091;DHT22;31826;53.572;10.170;2022-10-22T06:49:40;12.60;99.90
46091;DHT22;31826;53.572;10.170;2022-10-22T06:52:07;12.60;99.90
46091;DHT22;31826;53.572;10.170;2022-10-22T06:54:32;12.70;99.90
46091;DHT22;31826;53.572;10.170;2022-10-22T06:56:58;12.70;99.90
46091;DHT22;31826;53.572;10.170;2022-10-22T06:59:24;12.70;99.90
46091;DHT22;31826;53.572;10.170;2022-10-22T07:01:49;12.70;99.90
46091;DHT22;31826;53.572;10.170;2022-10-22T07:04:15;12.70;99.90
46091;DHT22;31826;53.572;10.170;2022-10-22T07:06:41;12.70;99.90
46091;DHT22;31826;53.572;10.170;2022-10-22T07:09:07;12.70;99.90
46091;DHT22;31826;53.572;10.170;2022-10-22T07:11:39;12.70;99.90
46091;DHT22;31826;53.572;10.170;2022-10-22T07:14:06;12.90;99.90
46091;DHT22;31826;53.572;10.170;2022-10-22T07:16:31;12.90;99.90
46091;DHT22;31826;53.572;10.170;2022-10-22T07:18:58;12.80;99.90
46091;DHT22;31826;53.572;10.170;2022-10-22T07:21:24;13.00;99.90
46091;DHT22;31826;53.572;10.170;2022-10-22T07:23:50;13.00;99.90
46091;DHT22;31826;53.572;10.170;2022-10-22T07:26:17;13.00;99.90
46091;DHT22;31826;53.572;10.170;2022-10-22T07:28:45;13.00;99.90
46091;DHT22;31826;53.572;10.170;2022-10-22T07:31:13;13.00;99.90
46091;DHT22;31826;53.572;10.170;2022-10-22T07:33:39;13.00;99.90
46091;DHT22;31826;53.572;10.170;2022-10-22T07:36:07;13.00;99.90
46091;DHT22;31826;53.572;10.170;2022-10-22T07:38:34;13.10;99.90
46091;DHT22;31826;53.572;10.170;2022-10-22T07:41:00;13.00;99.90
46091;DHT22;31826;53.572;10.170;2022-10-22T07:43:26;13.00;99.90
46091;DHT22;31826;53.572;10.170;2022-10-22T07:45:52;12.90;99.90
46091;DHT22;31826;53.572;10.170;2022-10-22T07:48:20;13.00;99.90
46091;DHT22;31826;53.572;10.170;2022-10-22T07:53:12;13.00;99.90
46091;DHT22;31826;53.572;10.170;2022-10-22T07:55:37;13.00;99.90
46091;DHT22;31826;53.572;10.170;2022-10-22T07:58:03;13.00;99.90
46091;DHT22;31826;53.572;10.170;2022-10-22T08:00:29;13.10;99.90
46091;DHT22;31826;53.572;10.170;2022-10-22T08:02:54;13.20;99.90
46091;DHT22;31826;53.572;10.170;2022-10-22T08:05:20;13.20;99.90
46091;DHT22;31826;53.572;10.170;2022-10-22T08:07:46;13.30;99.90
46091;DHT22;31826;53.572;10.170;2022-10-22T08:10:12;13.50;99.90
46091;DHT22;31826;53.572;10.170;2022-10-22T08:12:38;13.50;99.90
46091;DHT22;31826;53.572;10.170;2022-10-22T08:15:04;13.50;99.90
46091;DHT22;31826;53.572;10.170;2022-10-22T08:17:30;13.60;99.90
46091;DHT22;31826;53.572;10.170;2022-10-22T08:19:56;13.70;99.90
46091;DHT22;31826;53.572;10.170;2022-10-22T08:22:21;13.80;99.90
46091;DHT22;31826;53.572;10.170;2022-10-22T08:24:47;14.00;99.90
46091;DHT22;31826;53.572;10.170;2022-10-22T08:27:13;14.10;99.90
46091;DHT22;31826;53.572;10.170;2022-10-22T08:29:39;14.30;99.90
46091;DHT22;31826;53.572;10.170;2022-10-22T08:32:05;14.40;99.90
46091;DHT22;31826;53.572;10.170;2022-10-22T08:34:30;14.50;99.90
46091;DHT22;31826;53.572;10.170;2022-10-22T08:36:56;14.60;99.90
46091;DHT22;31826;53.572;10.170;2022-10-22T08:39:22;14.70;99.90
46091;DHT22;31826;53.572;10.170;2022-10-22T08:42:19;14.80;99.90
46091;DHT22;31826;53.572;10.170;2022-10-22T08:50:23;15.20;99.90
46091;DHT22;31826;53.572;10.170;2022-10-22T08:52:55;15.30;99.90
46091;DHT22;31826;53.572;10.170;2022-10-22T08:55:23;15.40;99.90
46091;DHT22;31826;53.572;10.170;2022-10-22T08:57:58;15.40;99.90
46091;DHT22;31826;53.572;10.170;2022-10-22T09:00:44;15.30;99.90
46091;DHT22;31826;53.572;10.170;2022-10-22T09:08:12;15.40;99.90
46091;DHT22;31826;53.572;10.170;2022-10-22T09:10:48;15.60;99.90
46091;DHT22;31826;53.572;10.170;2022-10-22T09:13:18;15.70;99.90
46091;DHT22;31826;53.572;10.170;2022-10-22T09:15:56;15.80;99.90
46091;DHT22;31826;53.572;10.170;2022-10-22T09:21:29;15.90;99.90
46091;DHT22;31826;53.572;10.170;2022-10-22T09:26:36;16.10;99.90
46091;DHT22;31826;53.572;10.170;2022-10-22T09:29:03;16.20;99.90
46091;DHT22;31826;53.572;10.170;2022-10-22T09:31:31;16.60;99.90
46091;DHT22;31826;53.572;10.170;2022-10-22T09:33:58;17.30;99.90
46091;DHT22;31826;53.572;10.170;2022-10-22T09:36:27;17.80;99.90
46091;DHT22;31826;53.572;10.170;2022-10-22T09:38:53;18.30;99.90
46091;DHT22;31826;53.572;10.170;2022-10-22T09:41:22;18.40;99.90
46091;DHT22;31826;53.572;10.170;2022-10-22T09:43:49;18.20;99.90
46091;DHT22;31826;53.572;10.170;2022-10-22T09:46:22;18.20;99.90
46091;DHT22;31826;53.572;10.170;2022-10-22T09:48:57;18.50;99.90
46091;DHT22;31826;53.572;10.170;2022-10-22T09:54:16;18.90;99.90
46091;DHT22;31826;53.572;10.170;2022-10-22T09:56:50;19.00;99.90
46091;DHT22;31826;53.572;10.170;2022-10-22T09:59:23;19.40;99.90
46091;DHT22;31826;53.572;10.170;2022-10-22T10:01:56;19.60;99.90
46091;DHT22;31826;53.572;10.170;2022-10-22T10:04:22;19.80;99.90
46091;DHT22;31826;53.572;10.170;2022-10-22T10:06:53;19.90;99.90
46091;DHT22;31826;53.572;10.170;2022-10-22T10:09:22;20.10;99.90
46091;DHT22;31826;53.572;10.170;2022-10-22T10:17:07;20.40;99.90
46091;DHT22;31826;53.572;10.170;2022-10-22T10:20:30;20.40;99.90
46091;DHT22;31826;53.572;10.170;2022-10-22T10:27:55;20.50;99.90
46091;DHT22;31826;53.572;10.170;2022-10-22T10:30:24;20.70;99.90
46091;DHT22;31826;53.572;10.170;2022-10-22T10:40:50;20.70;99.90
46091;DHT22;31826;53.572;10.170;2022-10-22T10:49:18;22.10;99.90
46091;DHT22;31826;53.572;10.170;2022-10-22T10:54:42;22.80;99.90
46091;DHT22;31826;53.572;10.170;2022-10-22T11:00:03;22.50;99.90
46091;DHT22;31826;53.572;10.170;2022-10-22T11:07:51;23.60;99.90
46091;DHT22;31826;53.572;10.170;2022-10-22T11:12:47;23.70;99.90
46091;DHT22;31826;53.572;10.170;2022-10-22T11:17:52;23.30;99.90
46091;DHT22;31826;53.572;10.170;2022-10-22T11:26:04;23.60;99.90
46091;DHT22;31826;53.572;10.170;2022-10-22T11:28:41;23.50;99.90
46091;DHT22;31826;53.572;10.170;2022-10-22T11:31:16;23.30;99.90
46091;DHT22;31826;53.572;10.170;2022-10-22T11:33:56;23.20;99.90
46091;DHT22;31826;53.572;10.170;2022-10-22T11:36:24;23.60;99.90
46091;DHT22;31826;53.572;10.170;2022-10-22T11:38:51;24.40;99.50
46091;DHT22;31826;53.572;10.170;2022-10-22T11:41:23;24.00;98.80
46091;DHT22;31826;53.572;10.170;2022-10-22T11:44:00;23.80;99.80
46091;DHT22;31826;53.572;10.170;2022-10-22T11:46:54;23.60;99.90
46091;DHT22;31826;53.572;10.170;2022-10-22T11:49:26;24.00;99.60
46091;DHT22;31826;53.572;10.170;2022-10-22T11:52:20;24.20;99.60
46091;DHT22;31826;53.572;10.170;2022-10-22T11:54:47;24.30;99.00
46091;DHT22;31826;53.572;10.170;2022-10-22T11:59:57;24.40;98.20
46091;DHT22;31826;53.572;10.170;2022-10-22T12:02:44;24.80;97.00
46091;DHT22;31826;53.572;10.170;2022-10-22T12:08:40;24.20;96.80
46091;DHT22;31826;53.572;10.170;2022-10-22T12:14:20;23.90;97.70
46091;DHT22;31826;53.572;10.170;2022-10-22T12:16:24;23.30;99.90
46091;DHT22;31826;53.572;10.170;2022-10-22T12:18:56;23.00;99.90
46091;DHT22;31826;53.572;10.170;2022-10-22T12:21:23;23.10;99.90
46091;DHT22;31826;53.572;10.170;2022-10-22T12:23:50;23.40;99.90
46091;DHT22;31826;53.572;10.170;2022-10-22T12:26:30;23.30;99.90
46091;DHT22;31826;53.572;10.170;2022-10-22T12:28:57;23.70;99.40
46091;DHT22;31826;53.572;10.170;2022-10-22T12:31:23;23.50;99.50
46091;DHT22;31826;53.572;10.170;2022-10-22T12:33:57;23.30;99.80
46091;DHT22;31826;53.572;10.170;2022-10-22T12:36:28;23.50;99.90
46091;DHT22;31826;53.572;10.170;2022-10-22T12:38:58;23.20;99.30
46091;DHT22;31826;53.572;10.170;2022-10-22T12:41:32;22.60;99.90
46091;DHT22;31826;53.572;10.170;2022-10-22T12:43:59;22.00;99.90
46091;DHT22;31826;53.572;10.170;2022-10-22T12:46:26;21.40;99.90
46091;DHT22;31826;53.572;10.170;2022-10-22T12:48:53;21.00;99.90
46091;DHT22;31826;53.572;10.170;2022-10-22T12:51:20;20.60;99.90
46091;DHT22;31826;53.572;10.170;2022-10-22T12:53:51;20.30;99.90
46091;DHT22;31826;53.572;10.170;2022-10-22T12:56:26;20.20;99.90
46091;DHT22;31826;53.572;10.170;2022-10-22T13:01:41;20.00;99.90
46091;DHT22;31826;53.572;10.170;2022-10-22T13:04:20;20.00;99.90
46091;DHT22;31826;53.572;10.170;2022-10-22T13:06:51;19.90;99.90
46091;DHT22;31826;53.572;10.170;2022-10-22T13:09:45;19.90;99.90
46091;DHT22;31826;53.572;10.170;2022-10-22T13:12:12;19.60;99.90
46091;DHT22;31826;53.572;10.170;2022-10-22T13:14:43;19.50;99.90
46091;DHT22;31826;53.572;10.170;2022-10-22T13:22:37;19.50;99.90
46091;DHT22;31826;53.572;10.170;2022-10-22T13:27:49;19.50;99.90
46091;DHT22;31826;53.572;10.170;2022-10-22T13:30:31;19.60;99.90
46091;DHT22;31826;53.572;10.170;2022-10-22T13:33:03;19.60;99.90
46091;DHT22;31826;53.572;10.170;2022-10-22T13:35:31;19.50;99.90
46091;DHT22;31826;53.572;10.170;2022-10-22T13:37:58;19.30;99.90
46091;DHT22;31826;53.572;10.170;2022-10-22T13:40:25;19.20;99.90
46091;DHT22;31826;53.572;10.170;2022-10-22T13:42:51;19.20;99.90
46091;DHT22;31826;53.572;10.170;2022-10-22T13:45:17;19.20;99.90
46091;DHT22;31826;53.572;10.170;2022-10-22T13:47:51;19.30;99.90
46091;DHT22;31826;53.572;10.170;2022-10-22T13:50:18;19.10;99.90
46091;DHT22;31826;53.572;10.170;2022-10-22T13:52:53;19.20;99.90
46091;DHT22;31826;53.572;10.170;2022-10-22T13:55:22;19.20;99.90
46091;DHT22;31826;53.572;10.170;2022-10-22T13:58:02;19.20;99.90
46091;DHT22;31826;53.572;10.170;2022-10-22T14:00:28;19.20;99.90
46091;DHT22;31826;53.572;10.170;2022-10-22T14:02:56;19.40;99.90
46091;DHT22;31826;53.572;10.170;2022-10-22T14:05:22;19.40;99.90
46091;DHT22;31826;53.572;10.170;2022-10-22T14:07:48;19.40;99.90
46091;DHT22;31826;53.572;10.170;2022-10-22T14:10:17;19.30;99.90
46091;DHT22;31826;53.572;10.170;2022-10-22T14:12:43;19.20;99.90
46091;DHT22;31826;53.572;10.170;2022-10-22T14:15:12;19.10;99.90
46091;DHT22;31826;53.572;10.170;2022-10-22T14:17:39;18.90;99.90
46091;DHT22;31826;53.572;10.170;2022-10-22T14:20:13;18.90;99.90
46091;DHT22;31826;53.572;10.170;2022-10-22T14:22:40;18.90;99.90
46091;DHT22;31826;53.572;10.170;2022-10-22T14:25:06;18.90;99.90
46091;DHT22;31826;53.572;10.170;2022-10-22T14:27:33;18.80;99.90
46091;DHT22;31826;53.572;10.170;2022-10-22T14:29:59;18.80;99.90
46091;DHT22;31826;53.572;10.170;2022-10-22T14:32:26;18.80;99.90
46091;DHT22;31826;53.572;10.170;2022-10-22T14:34:52;18.70;99.90
46091;DHT22;31826;53.572;10.170;2022-10-22T14:37:19;18.70;99.90
46091;DHT22;31826;53.572;10.170;2022-10-22T14:39:46;18.70;99.90
46091;DHT22;31826;53.572;10.170;2022-10-22T14:42:19;18.70;99.90
46091;DHT22;31826;53.572;10.170;2022-10-22T14:44:45;18.80;99.90
46091;DHT22;31826;53.572;10.170;2022-10-22T14:47:11;18.70;99.90
46091;DHT22;31826;53.572;10.170;2022-10-22T14:49:36;18.80;99.90
46091;DHT22;31826;53.572;10.170;2022-10-22T14:52:02;18.80;99.90
46091;DHT22;31826;53.572;10.170;2022-10-22T14:54:28;18.80;99.90
46091;DHT22;31826;53.572;10.170;2022-10-22T14:56:54;18.80;99.90
46091;DHT22;31826;53.572;10.170;2022-10-22T14:59:19;18.70;99.90
46091;DHT22;31826;53.572;10.170;2022-10-22T15:01:45;18.70;99.90
46091;DHT22;31826;53.572;10.170;2022-10-22T15:04:11;18.70;99.90
46091;DHT22;31826;53.572;10.170;2022-10-22T15:06:36;18.70;99.90
46091;DHT22;31826;53.572;10.170;2022-10-22T15:09:02;18.60;99.90
46091;DHT22;31826;53.572;10.170;2022-10-22T15:11:28;18.60;99.90
46091;DHT22;31826;53.572;10.170;2022-10-22T15:13:54;18.40;99.90
46091;DHT22;31826;53.572;10.170;2022-10-22T15:16:19;18.40;99.90
46091;DHT22;31826;53.572;10.170;2022-10-22T15:18:45;18.30;99.90
46091;DHT22;31826;53.572;10.170;2022-10-22T15:21:14;18.20;99.90
46091;DHT22;31826;53.572;10.170;2022-10-22T15:23:40;18.10;99.90
46091;DHT22;31826;53.572;10.170;2022-10-22T15:26:07;18.00;99.90
46091;DHT22;31826;53.572;10.170;2022-10-22T15:28:33;17.90;99.90
46091;DHT22;31826;53.572;10.170;2022-10-22T15:30:59;17.80;99.90
46091;DHT22;31826;53.572;10.170;2022-10-22T15:33:26;17.80;99.90
46091;DHT22;31826;53.572;10.170;2022-10-22T15:35:53;17.80;99.90
46091;DHT22;31826;53.572;10.170;2022-10-22T15:38:19;17.80;99.90
46091;DHT22;31826;53.572;10.170;2022-10-22T15:40:45;17.70;99.90
46091;DHT22;31826;53.572;10.170;2022-10-22T15:43:11;17.60;99.90
46091;DHT22;31826;53.572;10.170;2022-10-22T15:45:37;17.70;99.90
46091;DHT22;31826;53.572;10.170;2022-10-22T15:48:03;17.60;99.90
46091;DHT22;31826;53.572;10.170;2022-10-22T15:50:29;17.60;99.90
46091;DHT22;31826;53.572;10.170;2022-10-22T15:52:56;17.60;99.90
46091;DHT22;31826;53.572;10.170;2022-10-22T15:55:21;17.50;99.90
46091;DHT22;31826;53.572;10.170;2022-10-22T15:57:47;17.50;99.90
46091;DHT22;31826;53.572;10.170;2022-10-22T16:00:20;17.50;99.90
46091;DHT22;31826;53.572;10.170;2022-10-22T16:02:46;17.50;99.90
46091;DHT22;31826;53.572;10.170;2022-10-22T16:05:12;17.40;99.90
46091;DHT22;31826;53.572;10.170;2022-10-22T16:07:37;17.30;99.90
46091;DHT22;31826;53.572;10.170;2022-10-22T16:10:03;17.20;99.90
46091;DHT22;31826;53.572;10.170;2022-10-22T16:12:29;17.10;99.90
46091;DHT22;31826;53.572;10.170;2022-10-22T16:14:55;17.10;99.90
46091;DHT22;31826;53.572;10.170;2022-10-22T16:17:20;17.00;99.90
46091;DHT22;31826;53.572;10.170;2022-10-22T16:19:47;16.90;99.90
46091;DHT22;31826;53.572;10.170;2022-10-22T16:22:12;16.90;99.90
46091;DHT22;31826;53.572;10.170;2022-10-22T16:24:40;16.90;99.90
46091;DHT22;31826;53.572;10.170;2022-10-22T16:27:06;16.90;99.90
46091;DHT22;31826;53.572;10.170;2022-10-22T16:29:32;16.90;99.90
46091;DHT22;31826;53.572;10.170;2022-10-22T16:31:58;16.90;99.90
46091;DHT22;31826;53.572;10.170;2022-10-22T16:34:27;16.90;99.90
46091;DHT22;31826;53.572;10.170;2022-10-22T16:36:53;16.70;99.90
46091;DHT22;31826;53.572;10.170;2022-10-22T16:39:21;16.70;99.90
46091;DHT22;31826;53.572;10.170;2022-10-22T16:41:46;16.70;99.90
46091;DHT22;31826;53.572;10.170;2022-10-22T16:44:12;16.70;99.90
46091;DHT22;31826;53.572;10.170;2022-10-22T16:46:38;16.60;99.90
46091;DHT22;31826;53.572;10.170;2022-10-22T16:49:04;16.50;99.90
46091;DHT22;31826;53.572;10.170;2022-10-22T16:51:30;16.50;99.90
46091;DHT22;31826;53.572;10.170;2022-10-22T16:53:56;16.50;99.90
46091;DHT22;31826;53.572;10.170;2022-10-22T16:56:23;16.50;99.90
46091;DHT22;31826;53.572;10.170;2022-10-22T16:58:51;16.40;99.90
46091;DHT22;31826;53.572;10.170;2022-10-22T17:01:19;16.40;99.90
46091;DHT22;31826;53.572;10.170;2022-10-22T17:03:45;16.40;99.90
46091;DHT22;31826;53.572;10.170;2022-10-22T17:06:11;16.30;99.90
46091;DHT22;31826;53.572;10.170;2022-10-22T17:08:38;16.30;99.90
46091;DHT22;31826;53.572;10.170;2022-10-22T17:11:10;16.30;99.90
46091;DHT22;31826;53.572;10.170;2022-10-22T17:13:37;16.30;99.90
46091;DHT22;31826;53.572;10.170;2022-10-22T17:16:07;16.20;99.90
46091;DHT22;31826;53.572;10.170;2022-10-22T17:18:34;16.20;99.90